4XSIK EGKB-EGJJ
Flight info
| Callsign | 4XSIK |
|---|---|
| Flight time | N/A |
| Altitude | 25000 |
| Route | DET M604 LYD/N0510F280 M189 WAFFU/N0481F240 M189 NEVIL/N0453F180 G27 ANGLO/N0460F190 G273 BEVAV |
| Aircraft | C750/M-SBDE3FGHRWXY/S |
Departure
| Time | 2026-05-01 12:23 |
|---|---|
| Airport | London Biggin Hill Airport (EGKB) |
Arrival
| Time | N/A |
|---|---|
| Airport | Jersey Airport (EGJJ) |
| Time | Latitude | Longitude | Altitude | Speed | Heading |
|---|---|---|---|---|---|
| 2026-05-01 12:05 | 51.33046 | 0.02859 | 564 ft | 0 kts | 294° |
| 2026-05-01 12:12 | 51.33047 | 0.02858 | 561 ft | 1 kts | 306° |
| 2026-05-01 12:12 | 51.33053 | 0.02864 | 561 ft | 0 kts | 48° |
| 2026-05-01 12:13 | 51.33055 | 0.02868 | 565 ft | 3 kts | 49° |
| 2026-05-01 12:13 | 51.33060 | 0.02878 | 563 ft | 0 kts | 53° |
| 2026-05-01 12:14 | 51.33060 | 0.02881 | 562 ft | 1 kts | 82° |
| 2026-05-01 12:14 | 51.33051 | 0.02885 | 563 ft | 3 kts | 187° |
| 2026-05-01 12:15 | 51.33028 | 0.02878 | 563 ft | 3 kts | 189° |
| 2026-05-01 12:15 | 51.33027 | 0.02878 | 563 ft | 0 kts | 188° |
| 2026-05-01 12:15 | 51.33024 | 0.02878 | 565 ft | 0 kts | 188° |
| 2026-05-01 12:16 | 51.33023 | 0.02877 | 564 ft | 0 kts | 188° |
| 2026-05-01 12:16 | 51.33015 | 0.02876 | 564 ft | 1 kts | 187° |
| 2026-05-01 12:18 | 51.33010 | 0.02875 | 562 ft | 4 kts | 187° |
| 2026-05-01 12:19 | 51.32944 | 0.02857 | 570 ft | 11 kts | 193° |
| 2026-05-01 12:19 | 51.32874 | 0.02822 | 569 ft | 10 kts | 201° |
| 2026-05-01 12:19 | 51.32814 | 0.02767 | 571 ft | 10 kts | 213° |
| 2026-05-01 12:19 | 51.32741 | 0.02698 | 574 ft | 16 kts | 206° |
| 2026-05-01 12:20 | 51.32637 | 0.02623 | 579 ft | 16 kts | 207° |
| 2026-05-01 12:20 | 51.32541 | 0.02550 | 584 ft | 15 kts | 194° |
| 2026-05-01 12:20 | 51.32469 | 0.02560 | 586 ft | 0 kts | 165° |
| 2026-05-01 12:21 | 51.32443 | 0.02576 | 587 ft | 13 kts | 146° |
| 2026-05-01 12:21 | 51.32411 | 0.02717 | 588 ft | 7 kts | 55° |
| 2026-05-01 12:22 | 51.32487 | 0.02779 | 586 ft | 28 kts | 26° |
| 2026-05-01 12:22 | 51.32948 | 0.03135 | 562 ft | 123 kts | 25° |
| 2026-05-01 12:22 | 51.33975 | 0.03931 | 591 ft | 204 kts | 30° |
| 2026-05-01 12:22 | 51.35298 | 0.04996 | 844 ft | 215 kts | 31° |
| 2026-05-01 12:23 | 51.36575 | 0.06195 | 1340 ft | 215 kts | 48° |
| 2026-05-01 12:23 | 51.37032 | 0.08354 | 2020 ft | 218 kts | 100° |
| 2026-05-01 12:23 | 51.36118 | 0.10273 | 2379 ft | 225 kts | 142° |
| 2026-05-01 12:23 | 51.34954 | 0.11957 | 3548 ft | 233 kts | 137° |
| 2026-05-01 12:24 | 51.33744 | 0.13999 | 4121 ft | 267 kts | 137° |
| 2026-05-01 12:24 | 51.32710 | 0.16295 | 4084 ft | 246 kts | 110° |
| 2026-05-01 12:24 | 51.32657 | 0.18972 | 4581 ft | 259 kts | 87° |
| 2026-05-01 12:24 | 51.32815 | 0.21921 | 4500 ft | 265 kts | 92° |
| 2026-05-01 12:25 | 51.32690 | 0.24867 | 4411 ft | 266 kts | 101° |
| 2026-05-01 12:25 | 51.32248 | 0.30716 | 4873 ft | 269 kts | 99° |
| 2026-05-01 12:25 | 51.32086 | 0.33655 | 5352 ft | 271 kts | 98° |
| 2026-05-01 12:26 | 51.31908 | 0.36687 | 6006 ft | 268 kts | 100° |
| 2026-05-01 12:26 | 51.31502 | 0.42720 | 7470 ft | 275 kts | 99° |
| 2026-05-01 12:26 | 51.31312 | 0.45785 | 8229 ft | 280 kts | 99° |
| 2026-05-01 12:27 | 51.31114 | 0.48847 | 8970 ft | 283 kts | 99° |
| 2026-05-01 12:27 | 51.30591 | 0.55180 | 10482 ft | 301 kts | 109° |
| 2026-05-01 12:28 | 51.28489 | 0.60922 | 11957 ft | 303 kts | 139° |
| 2026-05-01 12:28 | 51.27335 | 0.62145 | 12453 ft | 302 kts | 158° |
| 2026-05-01 12:28 | 51.23225 | 0.61822 | 13982 ft | 308 kts | 200° |
| 2026-05-01 12:29 | 51.21252 | 0.60450 | 14693 ft | 311 kts | 201° |
| 2026-05-01 12:29 | 51.19248 | 0.59118 | 15416 ft | 313 kts | 199° |
| 2026-05-01 12:29 | 51.15131 | 0.56619 | 16930 ft | 319 kts | 199° |
| 2026-05-01 12:30 | 51.10954 | 0.53995 | 18503 ft | 326 kts | 199° |
| 2026-05-01 12:30 | 51.08807 | 0.52666 | 19060 ft | 344 kts | 199° |
| 2026-05-01 12:30 | 51.06504 | 0.51243 | 19394 ft | 346 kts | 199° |
| 2026-05-01 12:31 | 51.04323 | 0.49878 | 20129 ft | 337 kts | 199° |
| 2026-05-01 12:31 | 51.02139 | 0.48525 | 21115 ft | 338 kts | 199° |
| 2026-05-01 12:31 | 50.99929 | 0.47163 | 22142 ft | 343 kts | 199° |
| 2026-05-01 12:31 | 50.97719 | 0.45796 | 23203 ft | 347 kts | 199° |
| 2026-05-01 12:32 | 50.95459 | 0.44399 | 24207 ft | 350 kts | 199° |
| 2026-05-01 12:32 | 50.90786 | 0.41520 | 25155 ft | 383 kts | 199° |
| 2026-05-01 12:32 | 50.88211 | 0.39939 | 25185 ft | 410 kts | 199° |
| 2026-05-01 12:33 | 50.85489 | 0.38259 | 25199 ft | 425 kts | 199° |
| 2026-05-01 12:33 | 50.82718 | 0.36550 | 25210 ft | 430 kts | 199° |
| 2026-05-01 12:33 | 50.79927 | 0.34838 | 25218 ft | 431 kts | 199° |
| 2026-05-01 12:33 | 50.77126 | 0.33126 | 25215 ft | 431 kts | 199° |
| 2026-05-01 12:34 | 50.74329 | 0.31413 | 25216 ft | 432 kts | 199° |
| 2026-05-01 12:34 | 50.71503 | 0.29686 | 25221 ft | 436 kts | 199° |
| 2026-05-01 12:34 | 50.68673 | 0.27955 | 25221 ft | 436 kts | 199° |
| 2026-05-01 12:34 | 50.65838 | 0.26231 | 25221 ft | 437 kts | 199° |
| 2026-05-01 12:35 | 50.63002 | 0.24505 | 25216 ft | 437 kts | 199° |
| 2026-05-01 12:35 | 50.60164 | 0.22778 | 25220 ft | 437 kts | 199° |
| 2026-05-01 12:35 | 50.57323 | 0.21052 | 25217 ft | 438 kts | 199° |
| 2026-05-01 12:35 | 50.54475 | 0.19327 | 25219 ft | 438 kts | 199° |
| 2026-05-01 12:36 | 50.51624 | 0.17601 | 25219 ft | 438 kts | 199° |
| 2026-05-01 12:36 | 50.48778 | 0.15878 | 25221 ft | 438 kts | 199° |
| 2026-05-01 12:36 | 50.45931 | 0.14159 | 25221 ft | 439 kts | 199° |
| 2026-05-01 12:36 | 50.43079 | 0.12438 | 25223 ft | 439 kts | 199° |
| 2026-05-01 12:37 | 50.40286 | 0.10754 | 25220 ft | 439 kts | 199° |
| 2026-05-01 12:37 | 50.37525 | 0.08684 | 25215 ft | 442 kts | 207° |
| 2026-05-01 12:37 | 50.34951 | 0.06005 | 25141 ft | 446 kts | 214° |
| 2026-05-01 12:37 | 50.32537 | 0.02969 | 25020 ft | 446 kts | 216° |
| 2026-05-01 12:38 | 50.30103 | -0.00018 | 24897 ft | 444 kts | 214° |
| 2026-05-01 12:38 | 50.27660 | -0.02991 | 24794 ft | 444 kts | 215° |
| 2026-05-01 12:38 | 50.25233 | -0.05987 | 24314 ft | 444 kts | 215° |
| 2026-05-01 12:38 | 50.22826 | -0.08970 | 23723 ft | 438 kts | 215° |
| 2026-05-01 12:39 | 50.20403 | -0.11940 | 23108 ft | 434 kts | 215° |
| 2026-05-01 12:39 | 50.18066 | -0.14794 | 22546 ft | 430 kts | 215° |
| 2026-05-01 12:39 | 50.15721 | -0.17665 | 21981 ft | 427 kts | 215° |
| 2026-05-01 12:39 | 50.13392 | -0.20519 | 21419 ft | 424 kts | 215° |
| 2026-05-01 12:40 | 50.11082 | -0.23340 | 20862 ft | 420 kts | 215° |
| 2026-05-01 12:40 | 50.08787 | -0.26138 | 20309 ft | 417 kts | 216° |
| 2026-05-01 12:40 | 50.06579 | -0.29071 | 19764 ft | 416 kts | 220° |
| 2026-05-01 12:40 | 50.04488 | -0.32298 | 19161 ft | 427 kts | 226° |
| 2026-05-01 12:41 | 50.02396 | -0.35501 | 18617 ft | 419 kts | 223° |
| 2026-05-01 12:41 | 50.00221 | -0.38505 | 18085 ft | 416 kts | 223° |
| 2026-05-01 12:41 | 49.98157 | -0.41311 | 18002 ft | 371 kts | 221° |
| 2026-05-01 12:41 | 49.96235 | -0.44159 | 17894 ft | 406 kts | 240° |
| 2026-05-01 12:42 | 49.94148 | -0.47338 | 17907 ft | 439 kts | 237° |
| 2026-05-01 12:42 | 49.91947 | -0.50467 | 18329 ft | 407 kts | 218° |
| 2026-05-01 12:42 | 49.89834 | -0.53298 | 18241 ft | 401 kts | 218° |
| 2026-05-01 12:42 | 49.87739 | -0.56230 | 18229 ft | 404 kts | 220° |
| 2026-05-01 12:43 | 49.85689 | -0.59244 | 18224 ft | 407 kts | 221° |
| 2026-05-01 12:43 | 49.83606 | -0.62232 | 18225 ft | 407 kts | 220° |
| 2026-05-01 12:43 | 49.81497 | -0.65176 | 18221 ft | 408 kts | 219° |
| 2026-05-01 12:43 | 49.79429 | -0.68097 | 18224 ft | 408 kts | 220° |
| 2026-05-01 12:44 | 49.77344 | -0.71075 | 18228 ft | 408 kts | 220° |
| 2026-05-01 12:44 | 49.75245 | -0.74047 | 18228 ft | 408 kts | 220° |